Time;durP1;ratioP1;P1;durP2;ratioP2;P2;SDS_P1;SDS_P2;PMS_P1;PMS_P2;Temp;Humidity;BMP_temperature;BMP_pressure;BME280_temperature;BME280_humidity;BME280_pressure;Samples;Min_cycle;Max_cycle;Signal;HPM_P1;HPM_P2
2023/07/10 00:08:01;;;;;;;15.55;14.95;;;;;;;-141.02;100.00;50148.50;5133265;27;20195;-60
2023/07/10 00:10:31;;;;;;;15.27;14.68;;;;;;;-141.02;100.00;50315.91;5133503;27;20202;-62
2023/07/10 01:05:44;;;;;;;13.70;13.20;;;;;;;-141.02;100.00;50843.13;5053807;28;20279;-58
2023/07/10 01:08:12;;;;;;;12.85;12.45;;;;;;;-141.02;100.00;51782.31;5053454;28;20194;-56
2023/07/10 01:10:40;;;;;;;12.50;12.10;;;;;;;-141.02;100.00;53332.16;5053333;28;20787;-67
2023/07/10 01:14:00;;;;;;;11.07;10.77;;;;;;;-141.02;100.00;55711.28;5053418;28;20199;-55
2023/07/10 02:13:36;;;;;;;11.15;10.85;;;;;;;-141.02;100.00;67386.28;5135923;27;20692;-56
2023/07/10 02:16:04;;;;;;;12.00;11.60;;;;;;;-141.02;100.00;68128.91;5134424;27;20238;-56
2023/07/10 02:18:35;;;;;;;11.85;11.45;;;;;;;-141.02;100.00;67386.28;5135334;27;20208;-57
2023/07/10 02:24:23;;;;;;;12.32;11.93;;;;;;;-141.02;100.00;67138.78;5135365;27;20184;-56
2023/07/10 02:26:50;;;;;;;12.18;11.77;;;;;;;-141.02;100.00;68128.91;5135512;27;20223;-56
2023/07/10 02:29:19;;;;;;;11.60;11.30;;;;;;;-141.02;100.00;69119.34;5135157;27;20283;-60
2023/07/10 02:31:46;;;;;;;11.50;11.20;;;;;;;-141.02;100.00;67633.81;5135326;27;20231;-55
2023/07/10 02:34:12;;;;;;;12.23;11.82;;;;;;;-141.02;100.00;66396.38;5135413;27;20193;-59
2023/07/10 02:40:01;;;;;;;12.48;12.07;;;;;;;-141.02;100.00;67633.81;5135094;27;20602;-57
2023/07/10 02:46:34;;;;;;;12.65;12.25;;;;;;;-141.02;100.00;68624.09;5135210;27;20221;-56
2023/07/10 02:55:06;;;;;;;11.20;10.90;;;;;;;-141.02;100.00;74819.81;5118470;27;20260;-59
2023/07/10 02:57:33;;;;;;;11.15;10.85;;;;;;;-141.02;100.00;75315.94;5134592;27;20224;-55
2023/07/10 03:00:00;;;;;;;9.93;9.63;;;;;;;-141.02;100.00;77301.22;5134761;27;20193;-56
2023/07/10 03:02:27;;;;;;;9.25;8.98;;;;;;;-141.02;100.00;78294.28;5134496;27;20662;-56
2023/07/10 03:04:55;;;;;;;9.88;9.57;;;;;;;-141.02;100.00;78542.63;5134455;27;20203;-56
2023/07/10 03:07:22;;;;;;;9.65;9.35;;;;;;;-141.02;100.00;79536.03;5134463;27;20224;-58
2023/07/10 03:09:49;;;;;;;9.88;9.57;;;;;;;-141.02;100.00;80032.88;5134394;27;20562;-55
2023/07/10 03:12:16;;;;;;;10.00;9.70;;;;;;;-141.02;100.00;80281.31;5134482;27;20225;-56
2023/07/10 03:14:44;;;;;;;9.50;9.20;;;;;;;-141.02;100.00;80778.25;5134250;27;20206;-61
2023/07/10 03:17:11;;;;;;;9.10;8.90;;;;;;;-141.02;100.00;81275.25;5134487;27;20228;-55
2023/07/10 03:23:53;;;;;;;8.88;8.68;;;;;;;-141.02;100.00;83263.97;5134161;27;20254;-56
2023/07/10 03:26:22;;;;;;;8.50;8.30;;;;;;;-141.02;100.00;84507.50;5134271;27;20665;-55
2023/07/10 03:29:35;;;;;;;8.10;7.90;;;;;;;-141.02;100.00;85751.50;5134167;27;20197;-56
2023/07/10 03:32:02;;;;;;;8.38;8.18;;;;;;;-141.02;100.00;86249.22;5133929;27;20228;-56
2023/07/10 03:34:30;;;;;;;9.00;8.80;;;;;;;-141.02;100.00;85005.03;5133859;27;20200;-62
2023/07/10 03:37:00;;;;;;;10.50;10.20;;;;;;;-141.02;100.00;82518.06;5133872;27;20742;-59
2023/07/10 03:39:30;;;;;;;11.10;10.80;;;;;;;-141.02;100.00;82269.47;5133815;27;20228;-58
2023/07/10 03:42:02;;;;;;;11.90;11.50;;;;;;;-141.02;100.00;81772.31;5133738;27;20188;-59
2023/07/10 03:44:31;;;;;;;13.40;13.00;;;;;;;-141.02;100.00;82020.88;5134052;27;20224;-56
2023/07/10 03:47:00;;;;;;;14.85;14.35;;;;;;;-141.02;100.00;81026.72;5133639;27;20657;-56
2023/07/10 03:49:31;;;;;;;15.90;15.30;;;;;;;-141.02;100.00;79287.66;5133659;27;20192;-59
2023/07/10 03:52:00;;;;;;;17.13;16.42;;;;;;;-141.02;100.00;78790.94;5133725;27;20220;-56
2023/07/10 03:54:33;;;;;;;17.75;16.90;;;;;;;-141.02;100.00;73331.81;5133861;27;20572;-56
2023/07/10 03:57:19;;;;;;;18.95;17.95;;;;;;;-141.02;100.00;71101.03;5133421;27;20199;-56
2023/07/10 03:59:46;;;;;;;19.60;18.50;;;;;;;-141.02;100.00;69862.34;5133956;27;20200;-57
2023/07/10 04:02:13;;;;;;;19.65;18.55;;;;;;;-141.02;100.00;70110.03;5133798;27;20310;-67
2023/07/10 04:04:40;;;;;;;19.40;18.30;;;;;;;-141.02;99.71;69366.97;5134000;27;20192;-60
2023/07/10 04:07:07;;;;;;;20.10;18.95;;;;;;;-141.02;96.17;68871.72;5128411;27;20278;-59
2023/07/10 04:09:34;;;;;;;19.98;18.88;;;;;;;-141.02;94.73;67386.28;5133733;27;20221;-57
2023/07/10 04:15:24;;;;;;;20.10;18.90;;;;;;;-141.02;95.71;68871.72;5133306;27;20183;-56
2023/07/10 04:17:51;;;;;;;20.55;19.35;;;;;;;-141.02;93.40;68624.09;5133217;27;20192;-62
2023/07/10 04:23:52;;;;;;;21.73;20.40;;;;;;;-141.02;86.60;67881.38;5133337;27;20180;-57
2023/07/10 04:26:21;;;;;;;22.23;20.83;;;;;;;-141.02;84.62;67386.28;5133034;27;20672;-57
2023/07/10 04:32:12;;;;;;;22.88;21.40;;;;;;;-141.02;75.89;69862.34;5133340;27;20249;-64
2023/07/10 04:34:39;;;;;;;23.55;22.05;;;;;;;-141.02;78.86;68376.50;5132989;27;20204;-57
2023/07/10 04:37:38;;;;;;;22.48;20.98;;;;;;;-141.02;78.47;69119.34;5132955;27;20654;-57
2023/07/10 04:40:40;;;;;;;23.30;21.80;;;;;;;-141.02;70.74;69119.34;5132806;28;20284;-59
2023/07/10 04:43:33;;;;;;;23.38;21.77;;;;;;;-141.02;71.51;70357.75;5133254;28;20195;-57
2023/07/10 04:46:08;;;;;;;23.35;21.75;;;;;;;-141.02;69.17;71101.03;5133191;28;20195;-57
2023/07/10 04:48:36;;;;;;;23.85;22.25;;;;;;;-141.02;66.88;70605.50;5133216;28;20180;-59
2023/07/10 04:51:07;;;;;;;24.05;22.45;;;;;;;-141.02;66.16;69366.97;5132794;28;20577;-59
2023/07/10 04:53:35;;;;;;;24.08;22.48;;;;;;;-141.02;67.46;68624.09;5132937;27;20231;-65
2023/07/10 04:56:03;;;;;;;23.70;22.10;;;;;;;-141.02;68.01;70357.75;5133074;28;20637;-58
2023/07/10 04:58:31;;;;;;;24.58;22.98;;;;;;;-141.02;67.20;70605.50;5132783;27;20663;-60
2023/07/10 05:00:59;;;;;;;26.80;24.90;;;;;;;-141.02;66.13;69366.97;5132722;27;20252;-60
2023/07/10 05:03:26;;;;;;;26.38;24.58;;;;;;;-141.02;64.47;70110.03;5133070;27;20211;-57
2023/07/10 05:05:59;;;;;;;24.85;23.13;;;;;;;-141.02;62.04;70357.75;5132930;28;20283;-57
2023/07/10 05:08:28;;;;;;;25.77;24.08;;;;;;;-141.02;64.25;69614.66;5132801;28;20267;-66
2023/07/10 05:10:56;;;;;;;25.33;23.63;;;;;;;-141.02;63.73;68624.09;5132641;28;20236;-61
2023/07/10 05:13:25;;;;;;;24.05;22.38;;;;;;;-141.02;64.97;68376.50;5132520;28;20315;-57
2023/07/10 05:15:53;;;;;;;23.95;22.35;;;;;;;-141.02;70.54;64912.06;5132617;27;20197;-57
2023/07/10 05:18:22;;;;;;;21.65;20.15;;;;;;;-141.02;73.28;63922.84;5132871;27;20215;-58
2023/07/10 05:20:58;;;;;;;22.73;21.13;;;;;;;-141.02;78.63;62192.44;5132947;28;20626;-63
2023/07/10 05:23:25;;;;;;;22.15;20.65;;;;;;;-141.02;83.16;62192.44;5132515;28;20685;-62
2023/07/10 05:25:57;;;;;;;21.98;20.58;;;;;;;-141.02;90.87;63181.16;5132859;28;20192;-57
2023/07/10 05:28:24;;;;;;;21.40;20.10;;;;;;;-141.02;92.53;62686.75;5132735;28;20192;-59
2023/07/10 05:30:52;;;;;;;20.77;19.58;;;;;;;-141.02;94.37;61945.31;5132468;28;20628;-57
2023/07/10 05:33:20;;;;;;;20.25;19.05;;;;;;;-141.02;96.58;62192.44;5132649;27;20277;-57
2023/07/10 05:35:55;;;;;;;20.02;18.92;;;;;;;-141.02;100.00;61698.22;5132641;28;20288;-57
2023/07/10 05:38:26;;;;;;;20.08;18.98;;;;;;;-141.02;100.00;65654.13;5132427;28;20685;-58
2023/07/10 05:40:56;;;;;;;19.55;18.55;;;;;;;-141.02;100.00;66396.38;5132491;27;20279;-57
2023/07/10 05:43:23;;;;;;;19.75;18.65;;;;;;;-141.02;99.34;67881.38;5132664;28;20228;-58
2023/07/10 05:45:51;;;;;;;20.73;19.63;;;;;;;-141.02;96.83;69614.66;5132596;28;20224;-56
2023/07/10 05:48:24;;;;;;;20.90;19.80;;;;;;;-141.02;94.82;68871.72;5132345;27;20201;-57
2023/07/10 05:50:54;;;;;;;19.92;18.83;;;;;;;-141.02;94.34;69614.66;5134700;27;20189;-57
2023/07/10 05:53:25;;;;;;;21.70;20.50;;;;;;;-141.02;91.47;69366.97;5135798;27;20319;-57
2023/07/10 05:55:55;;;;;;;20.98;19.67;;;;;;;-141.02;83.63;66891.31;5136087;27;20201;-60
2023/07/10 05:58:25;;;;;;;19.33;18.23;;;;;;;-141.02;85.34;64664.72;5135852;27;20279;-57
2023/07/10 06:00:59;;;;;;;19.30;18.20;;;;;;;-141.02;90.76;68128.91;5135754;27;20689;-58
2023/07/10 06:03:26;;;;;;;18.30;17.20;;;;;;;-141.02;89.86;67881.38;5135783;27;20193;-63
2023/07/10 06:05:56;;;;;;;18.27;17.17;;;;;;;-141.02;91.18;69119.34;5135622;27;20198;-60
2023/07/10 06:08:26;;;;;;;18.80;17.60;;;;;;;-141.02;88.51;68871.72;5135533;27;20262;-59
2023/07/10 06:10:53;;;;;;;19.70;18.50;;;;;;;-141.02;87.23;67881.38;5135907;27;20199;-57
2023/07/10 06:13:23;;;;;;;19.85;18.65;;;;;;;-141.02;84.70;67386.28;5135385;27;20277;-61
2023/07/10 06:15:58;;;;;;;19.35;18.15;;;;;;;-141.02;85.77;68624.09;5135750;27;20272;-66
2023/07/10 06:18:26;;;;;;;19.92;18.65;;;;;;;-141.02;83.88;68871.72;5135741;27;20196;-64
2023/07/10 06:20:54;;;;;;;19.63;18.42;;;;;;;-141.02;84.91;68871.72;5135750;27;20192;-66
2023/07/10 06:23:28;;;;;;;19.52;18.33;;;;;;;-141.02;84.17;68871.72;5135344;27;20748;-60
2023/07/10 06:25:55;;;;;;;19.70;18.50;;;;;;;-141.02;85.52;69862.34;5135334;27;20224;-57
2023/07/10 06:28:25;;;;;;;20.27;19.08;;;;;;;-141.02;83.61;68376.50;5135448;27;20199;-57
2023/07/10 06:30:56;;;;;;;19.77;18.58;;;;;;;-141.02;87.45;69119.34;5135237;27;20287;-59
2023/07/10 06:33:25;;;;;;;20.33;19.13;;;;;;;-141.02;85.95;69366.97;5135028;27;20719;-58
2023/07/10 06:35:55;;;;;;;20.58;19.27;;;;;;;-141.02;84.32;69366.97;5135446;27;20271;-61
2023/07/10 06:38:25;;;;;;;20.67;19.38;;;;;;;-141.02;82.42;68871.72;5135323;27;20620;-58
2023/07/10 06:40:55;;;;;;;21.08;19.77;;;;;;;-141.02;83.63;70110.03;5135045;27;20283;-65
2023/07/10 06:43:28;;;;;;;20.60;19.30;;;;;;;-141.02;82.55;69366.97;5135219;27;20231;-58
2023/07/10 06:45:57;;;;;;;21.10;19.80;;;;;;;-141.02;81.74;70605.50;5135211;27;20271;-57
2023/07/10 06:48:26;;;;;;;21.27;19.88;;;;;;;-141.02;79.51;69366.97;5135083;27;20650;-59
2023/07/10 06:50:57;;;;;;;20.27;18.98;;;;;;;-141.02;81.04;68871.72;5134720;27;20284;-57
2023/07/10 06:53:26;;;;;;;21.38;19.98;;;;;;;-141.02;80.77;69366.97;5134437;27;20255;-57
2023/07/10 06:55:58;;;;;;;20.83;19.52;;;;;;;-141.02;81.99;70605.50;5134603;27;20284;-57
2023/07/10 06:58:26;;;;;;;21.77;20.38;;;;;;;-141.02;79.36;70853.25;5134872;27;20283;-59
2023/07/10 07:01:00;;;;;;;21.08;19.77;;;;;;;-141.02;78.37;71101.03;5134401;27;20221;-60
2023/07/10 07:03:28;;;;;;;21.70;20.40;;;;;;;-141.02;78.55;70357.75;5134461;27;20662;-58
2023/07/10 07:05:56;;;;;;;20.98;19.67;;;;;;;-141.02;79.15;69614.66;5134699;27;20196;-57
2023/07/10 07:08:28;;;;;;;20.42;19.13;;;;;;;-141.02;81.18;72340.16;5134338;27;20319;-63
2023/07/10 07:10:57;;;;;;;20.48;19.15;;;;;;;-141.02;81.33;72340.16;5134292;27;20232;-59
2023/07/10 07:13:27;;;;;;;20.70;19.40;;;;;;;-141.02;81.67;72588.06;5134195;27;20280;-58
2023/07/10 07:15:57;;;;;;;21.20;19.90;;;;;;;-141.02;78.19;72588.06;5134291;27;20590;-61
2023/07/10 07:18:27;;;;;;;20.48;19.17;;;;;;;-141.02;76.54;71348.81;5134196;27;20198;-58
2023/07/10 07:20:57;;;;;;;20.48;19.17;;;;;;;-141.02;79.76;71596.63;5134540;27;20224;-66
2023/07/10 07:23:24;;;;;;;19.70;18.50;;;;;;;-141.02;81.63;71844.47;5134043;27;20665;-60
2023/07/10 07:25:59;;;;;;;19.63;18.38;;;;;;;-141.02;82.43;72092.31;5134106;27;20197;-58
2023/07/10 07:28:26;;;;;;;21.42;20.02;;;;;;;-141.02;78.40;72340.16;5134353;27;20227;-66
2023/07/10 07:31:03;;;;;;;20.95;19.65;;;;;;;-141.02;75.84;73827.72;5134206;27;20279;-57
2023/07/10 07:33:31;;;;;;;20.85;19.55;;;;;;;-141.02;75.00;72588.06;5133840;27;20231;-58
2023/07/10 07:36:00;;;;;;;20.98;19.67;;;;;;;-141.02;78.89;73827.72;5133945;27;20638;-60
2023/07/10 07:38:27;;;;;;;20.67;19.38;;;;;;;-141.02;74.68;74323.72;5134090;27;20203;-57
2023/07/10 07:40:59;;;;;;;20.83;19.42;;;;;;;-141.02;73.81;72092.31;5134105;27;20199;-58
2023/07/10 07:43:29;;;;;;;20.98;19.67;;;;;;;-141.02;77.39;74075.72;5134071;27;20571;-62
2023/07/10 07:45:58;;;;;;;20.77;19.48;;;;;;;-141.02;74.39;72835.97;5134031;27;20209;-58
2023/07/10 07:48:28;;;;;;;20.92;19.52;;;;;;;-141.02;79.77;72835.97;5134057;27;20224;-58
2023/07/10 07:51:02;;;;;;;20.40;19.10;;;;;;;-141.02;79.85;74819.81;5133918;27;20275;-58
2023/07/10 07:53:30;;;;;;;21.23;19.83;;;;;;;-141.02;78.25;75315.94;5133788;27;20325;-58
2023/07/10 07:55:57;;;;;;;21.30;20.00;;;;;;;-141.02;78.08;74075.72;5133683;27;20652;-63
2023/07/10 07:58:31;;;;;;;20.50;19.30;;;;;;;-141.02;78.11;75564.03;5133860;27;20241;-59
2023/07/10 08:00:59;;;;;;;20.95;19.65;;;;;;;-141.02;75.35;74571.75;5133623;27;20286;-64
2023/07/10 08:03:27;;;;;;;21.27;19.88;;;;;;;-141.02;74.91;74075.72;5133387;27;20614;-60
2023/07/10 08:05:57;;;;;;;21.17;19.88;;;;;;;-141.02;77.29;74571.75;5133233;27;20188;-64
2023/07/10 08:08:27;;;;;;;21.33;20.00;;;;;;;-141.02;73.94;72588.06;5133250;27;20233;-67
2023/07/10 08:11:00;;;;;;;20.70;19.40;;;;;;;-141.02;75.43;75812.16;5133452;27;20571;-60
2023/07/10 08:13:28;;;;;;;21.65;20.25;;;;;;;-141.02;73.01;75812.16;5132315;27;20255;-57
2023/07/10 08:16:00;;;;;;;21.27;19.88;;;;;;;-141.02;71.84;75315.94;5133111;27;20261;-57
2023/07/10 08:18:29;;;;;;;21.20;19.90;;;;;;;-141.02;72.15;76308.44;5133543;27;20193;-68
2023/07/10 08:21:02;;;;;;;21.23;19.83;;;;;;;-141.02;70.99;76308.44;5133164;27;20228;-58
2023/07/10 08:23:29;;;;;;;21.23;19.83;;;;;;;-141.02;72.07;76308.44;5133308;27;20311;-61
2023/07/10 08:26:00;;;;;;;21.70;20.20;;;;;;;-141.02;71.32;74571.75;5133351;27;20291;-65
2023/07/10 08:28:29;;;;;;;22.38;20.90;;;;;;;-141.02;68.15;74323.72;5132970;27;20238;-58
2023/07/10 08:31:01;;;;;;;21.58;20.17;;;;;;;-141.02;69.58;75812.16;5132983;27;20238;-58
2023/07/10 08:33:31;;;;;;;22.48;21.02;;;;;;;-141.02;70.26;77301.22;5132879;27;20259;-59
2023/07/10 08:36:02;;;;;;;21.88;20.48;;;;;;;-141.02;68.87;77301.22;5132915;27;20196;-61
2023/07/10 08:38:31;;;;;;;22.00;20.52;;;;;;;-141.02;67.86;76556.59;5132786;27;20199;-65
2023/07/10 08:41:02;;;;;;;21.98;20.48;;;;;;;-141.02;66.76;77053.00;5132916;27;20284;-57
2023/07/10 08:43:33;;;;;;;22.48;20.98;;;;;;;-141.02;66.34;76060.28;5132846;28;20651;-58
2023/07/10 08:46:05;;;;;;;22.23;20.73;;;;;;;-141.02;64.56;75564.03;5133140;27;20200;-66
2023/07/10 08:48:36;;;;;;;22.10;20.60;;;;;;;-141.02;65.69;73827.72;5132734;28;20568;-60
2023/07/10 08:51:13;;;;;;;22.13;20.63;;;;;;;-141.02;65.00;74323.72;5133146;28;20227;-58
2023/07/10 08:53:44;;;;;;;22.17;20.67;;;;;;;-141.02;66.07;74075.72;5132755;27;20223;-61
2023/07/10 08:56:22;;;;;;;22.73;21.23;;;;;;;-141.02;64.62;73827.72;5133010;28;20220;-58
2023/07/10 08:58:49;;;;;;;22.08;20.67;;;;;;;-141.02;68.44;77053.00;5133270;27;20188;-66
2023/07/10 09:01:30;;;;;;;22.42;20.92;;;;;;;-141.02;64.65;76308.44;5133053;27;20321;-57
2023/07/10 09:04:06;;;;;;;23.13;21.63;;;;;;;-141.02;61.81;75564.03;5132669;28;20275;-65
2023/07/10 09:06:38;;;;;;;23.50;22.00;;;;;;;-141.02;63.28;76308.44;5132684;28;20200;-58
2023/07/10 09:09:14;;;;;;;23.33;21.83;;;;;;;-141.02;62.40;76804.81;5133178;28;20185;-68
2023/07/10 09:11:41;;;;;;;23.83;22.23;;;;;;;-141.02;61.11;75564.03;5132720;27;20730;-61
2023/07/10 09:14:21;;;;;;;23.48;21.98;;;;;;;-141.02;64.52;74075.72;5132520;27;20229;-61
2023/07/10 09:16:51;;;;;;;24.05;22.35;;;;;;;-141.02;62.95;75067.88;5132613;28;20231;-62
2023/07/10 09:19:20;;;;;;;23.63;22.13;;;;;;;-141.02;64.72;76804.81;5132721;28;20638;-57
2023/07/10 09:21:48;;;;;;;25.38;23.70;;;;;;;-141.02;59.95;75812.16;5132663;27;20192;-64
2023/07/10 09:24:21;;;;;;;23.65;22.08;;;;;;;-141.02;61.18;77301.22;5133131;27;20279;-59
2023/07/10 09:26:50;;;;;;;23.45;21.85;;;;;;;-141.02;60.77;78046.00;5137029;27;20192;-58
2023/07/10 09:29:27;;;;;;;24.60;23.00;;;;;;;-141.02;63.33;75564.03;5136467;27;20750;-58
2023/07/10 09:32:03;;;;;;;23.48;21.88;;;;;;;-141.02;61.38;75564.03;5136469;27;20279;-59
2023/07/10 09:34:34;;;;;;;24.55;22.85;;;;;;;-141.02;60.61;75067.88;5136963;27;20219;-57
2023/07/10 09:37:05;;;;;;;24.13;22.42;;;;;;;-141.02;60.67;74819.81;5136215;27;20192;-60
2023/07/10 09:39:34;;;;;;;23.50;21.90;;;;;;;-141.02;63.00;75812.16;5136842;27;20291;-67
2023/07/10 09:42:05;;;;;;;23.58;21.98;;;;;;;-141.02;61.37;77797.72;5136357;27;20196;-62
2023/07/10 09:44:36;;;;;;;23.75;22.15;;;;;;;-141.02;60.13;77053.00;5136051;27;20280;-64
2023/07/10 09:47:09;;;;;;;23.48;21.90;;;;;;;-141.02;55.12;74075.72;5136245;27;20267;-68
2023/07/10 09:49:41;;;;;;;24.20;22.60;;;;;;;-141.02;60.11;75564.03;5136283;27;20181;-66
2023/07/10 09:52:17;;;;;;;24.25;22.65;;;;;;;-141.02;59.32;73083.88;5136052;27;20220;-68
2023/07/10 09:54:45;;;;;;;24.25;22.55;;;;;;;-141.02;62.09;75315.94;5135819;27;20222;-59
2023/07/10 09:57:14;;;;;;;23.80;22.20;;;;;;;-141.02;58.19;75067.88;5135833;27;20261;-59
2023/07/10 09:59:48;;;;;;;23.63;22.02;;;;;;;-141.02;56.65;74075.72;5135797;27;20193;-58
2023/07/10 10:02:22;;;;;;;23.35;21.75;;;;;;;-141.02;57.06;73331.81;5135764;27;20194;-58
2023/07/10 10:04:53;;;;;;;23.80;22.20;;;;;;;-141.02;58.20;73331.81;5135707;27;20669;-60
2023/07/10 10:07:22;;;;;;;24.40;22.80;;;;;;;-141.02;54.59;74571.75;5135575;27;20232;-57
2023/07/10 10:10:23;;;;;;;25.20;23.50;;;;;;;-141.02;58.53;76556.59;5136091;27;20203;-67
2023/07/10 10:12:56;;;;;;;25.80;24.10;;;;;;;-141.02;54.89;75067.88;5135526;27;20638;-59
2023/07/10 10:15:33;;;;;;;25.20;23.55;;;;;;;-141.02;55.84;75315.94;5135712;27;20275;-67
2023/07/10 10:18:06;;;;;;;25.20;23.50;;;;;;;-141.02;52.99;72588.06;5135394;27;20279;-65
2023/07/10 10:20:36;;;;;;;25.08;23.38;;;;;;;-141.02;54.24;74571.75;5135802;27;20216;-57
2023/07/10 10:23:03;;;;;;;24.60;23.00;;;;;;;-141.02;55.52;73827.72;5135816;27;20238;-66
2023/07/10 10:25:36;;;;;;;25.05;23.35;;;;;;;-141.02;52.07;73579.75;5135632;27;20718;-62
2023/07/10 10:28:21;;;;;;;24.35;22.70;;;;;;;-141.02;53.62;75812.16;5135951;27;20212;-61
2023/07/10 10:30:51;;;;;;;24.75;23.05;;;;;;;-141.02;50.74;72835.97;5135285;27;20276;-58
2023/07/10 10:33:29;;;;;;;24.60;22.90;;;;;;;-141.02;52.56;71844.47;5135339;27;20212;-58
2023/07/10 10:36:00;;;;;;;24.10;22.40;;;;;;;-141.02;51.05;70357.75;5134872;27;20182;-59
2023/07/10 10:38:46;;;;;;;23.35;21.75;;;;;;;-141.02;53.35;71101.03;5135330;27;20229;-58
2023/07/10 10:41:46;;;;;;;24.58;22.98;;;;;;;-141.02;55.44;72340.16;5135063;27;20184;-61
2023/07/10 10:44:42;;;;;;;23.65;22.05;;;;;;;-141.02;52.61;71348.81;5119299;27;20192;-58
2023/07/10 10:47:36;;;;;;;24.10;22.40;;;;;;;-141.02;53.11;71596.63;5129892;27;20284;-61
2023/07/10 10:50:30;;;;;;;24.70;23.00;;;;;;;-141.02;51.25;70853.25;5134790;27;20275;-61
2023/07/10 10:53:12;;;;;;;24.52;22.83;;;;;;;-141.02;50.99;68376.50;5135131;27;20318;-58
2023/07/10 10:55:50;;;;;;;24.00;22.40;;;;;;;-141.02;53.94;66643.84;5134766;27;20181;-62
2023/07/10 10:58:30;;;;;;;23.90;22.30;;;;;;;-141.02;54.44;69366.97;5134799;27;20646;-61
2023/07/10 11:01:18;;;;;;;23.88;22.27;;;;;;;-141.02;53.02;71844.47;5134669;27;20245;-62
2023/07/10 11:03:51;;;;;;;24.42;22.77;;;;;;;-141.02;50.10;69366.97;5134569;27;20659;-62
2023/07/10 11:06:33;;;;;;;24.05;22.42;;;;;;;-141.02;52.69;70853.25;5134601;27;20276;-59
2023/07/10 11:09:04;;;;;;;23.45;21.85;;;;;;;-141.02;54.36;70853.25;5093857;28;20270;-60
2023/07/10 11:11:33;;;;;;;23.75;22.05;;;;;;;-141.02;51.51;67386.28;5093902;28;20190;-58
2023/07/10 11:14:03;;;;;;;24.00;22.30;;;;;;;-141.02;53.15;67138.78;5093644;28;20225;-63
2023/07/10 11:16:32;;;;;;;23.90;22.25;;;;;;;-141.02;53.70;68128.91;5093534;28;20635;-68
2023/07/10 11:19:01;;;;;;;24.02;22.33;;;;;;;-141.02;51.03;65654.13;5093963;28;20201;-57
2023/07/10 11:21:30;;;;;;;23.58;21.88;;;;;;;-141.02;52.40;64912.06;5093891;28;20193;-65
2023/07/10 11:23:57;;;;;;;23.77;22.17;;;;;;;-141.02;52.80;66148.94;5093558;28;20300;-60
2023/07/10 11:26:26;;;;;;;25.08;23.38;;;;;;;-141.02;55.05;69366.97;5093127;28;20200;-61
2023/07/10 11:28:55;;;;;;;23.88;22.17;;;;;;;-141.02;52.15;68624.09;5093167;28;20655;-59
2023/07/10 11:31:35;;;;;;;24.02;22.33;;;;;;;-141.02;52.40;65654.13;5093387;28;20201;-59
2023/07/10 11:34:35;;;;;;;23.80;22.10;;;;;;;-141.02;53.95;68871.72;5093359;28;20752;-59
2023/07/10 11:37:04;;;;;;;24.30;22.60;;;;;;;-141.02;50.42;65901.53;5094196;28;20200;-61
2023/07/10 11:39:32;;;;;;;24.38;22.67;;;;;;;-141.02;53.30;70110.03;5093362;28;20194;-64
2023/07/10 11:42:14;;;;;;;23.50;21.88;;;;;;;-141.02;54.42;72588.06;5093248;28;20228;-62
2023/07/10 11:44:43;;;;;;;24.08;22.38;;;;;;;-141.02;50.39;69366.97;5092928;28;20194;-58
2023/07/10 11:47:21;;;;;;;24.15;22.45;;;;;;;-141.02;50.85;68128.91;5093083;28;20212;-62
2023/07/10 11:50:21;;;;;;;24.05;22.35;;;;;;;-141.02;51.75;66643.84;5092647;28;20225;-58
2023/07/10 11:53:06;;;;;;;23.67;21.98;;;;;;;-141.02;50.85;66891.31;5092860;28;20197;-57
2023/07/10 11:55:42;;;;;;;23.80;22.10;;;;;;;-141.02;53.34;67881.38;5092986;28;20711;-59
2023/07/10 11:58:28;;;;;;;23.30;21.60;;;;;;;-141.02;53.31;69614.66;5092972;28;20186;-59
2023/07/10 12:01:14;;;;;;;23.52;21.83;;;;;;;-141.02;49.23;67386.28;5092600;28;20251;-61
2023/07/10 12:03:42;;;;;;;23.63;21.92;;;;;;;-141.02;49.86;67138.78;5092903;28;20204;-58
2023/07/10 12:06:16;;;;;;;22.88;21.27;;;;;;;-141.02;52.17;69862.34;5092639;28;20198;-61
2023/07/10 12:08:46;;;;;;;23.38;21.67;;;;;;;-141.02;49.57;67138.78;5131352;27;20756;-59
2023/07/10 12:11:27;;;;;;;23.40;21.70;;;;;;;-141.02;49.63;65901.53;5133496;27;20192;-58
2023/07/10 12:13:54;;;;;;;24.20;22.40;;;;;;;-141.02;50.31;66396.38;5133562;27;20299;-64
2023/07/10 12:16:22;;;;;;;23.55;21.85;;;;;;;-141.02;53.20;67138.78;5133267;27;20617;-62
2023/07/10 12:18:49;;;;;;;23.48;21.77;;;;;;;-141.02;53.62;66396.38;5133220;27;20753;-68
2023/07/10 12:21:22;;;;;;;23.48;21.77;;;;;;;-141.02;54.88;67633.81;5133116;27;20680;-60
2023/07/10 12:23:54;;;;;;;24.23;22.42;;;;;;;-141.02;53.31;66643.84;5133806;27;20241;-58
2023/07/10 12:26:21;;;;;;;24.08;22.38;;;;;;;-141.02;52.67;65159.41;5133118;27;20283;-63
2023/07/10 12:28:55;;;;;;;24.67;22.88;;;;;;;-141.02;51.86;67138.78;5133439;27;20193;-58
2023/07/10 12:31:22;;;;;;;24.70;22.90;;;;;;;-141.02;51.77;68871.72;5133380;27;20184;-68
2023/07/10 12:33:51;;;;;;;24.60;22.80;;;;;;;-141.02;51.42;70110.03;5132893;27;20655;-60
2023/07/10 12:36:24;;;;;;;25.13;23.33;;;;;;;-141.02;49.70;71101.03;5133098;27;20193;-60
2023/07/10 12:38:51;;;;;;;24.65;22.85;;;;;;;-141.02;48.70;69862.34;5133512;27;20188;-60
2023/07/10 12:41:21;;;;;;;24.50;22.80;;;;;;;-141.02;49.78;67633.81;5132948;28;20620;-64
2023/07/10 12:43:51;;;;;;;25.02;23.13;;;;;;;-141.02;49.11;68376.50;5133199;28;20581;-63
2023/07/10 12:46:23;;;;;;;24.25;22.55;;;;;;;-141.02;50.79;66643.84;5132909;28;20184;-61
2023/07/10 12:48:55;;;;;;;25.67;23.77;;;;;;;-141.02;51.45;69862.34;5133315;27;20245;-61
2023/07/10 12:51:28;;;;;;;24.45;22.75;;;;;;;-141.02;50.76;70110.03;5133200;27;20180;-58
2023/07/10 12:53:58;;;;;;;25.10;23.38;;;;;;;-141.02;52.50;73083.88;5133356;27;20184;-68
2023/07/10 12:56:32;;;;;;;25.27;23.48;;;;;;;-141.02;50.33;72588.06;5133145;28;20243;-60
2023/07/10 12:59:07;;;;;;;25.02;23.23;;;;;;;-141.02;49.64;69614.66;5133182;27;20184;-63
2023/07/10 13:01:34;;;;;;;24.08;22.38;;;;;;;-141.02;51.75;71596.63;5137395;27;20216;-63
2023/07/10 13:04:18;;;;;;;24.58;22.88;;;;;;;-141.02;50.20;67386.28;5137277;27;20287;-61
2023/07/10 13:06:45;;;;;;;23.83;22.13;;;;;;;-141.02;50.67;67633.81;5136714;27;20243;-59
2023/07/10 13:09:21;;;;;;;24.40;22.60;;;;;;;-141.02;51.34;68376.50;5137220;27;20604;-59
2023/07/10 13:11:51;;;;;;;23.40;21.70;;;;;;;-141.02;50.79;67881.38;5137239;27;20203;-61
2023/07/10 13:14:26;;;;;;;24.40;22.70;;;;;;;-141.02;50.99;67386.28;5136638;27;20316;-58
2023/07/10 13:16:54;;;;;;;23.70;22.00;;;;;;;-141.02;52.91;70110.03;5137053;27;20260;-59
2023/07/10 13:19:21;;;;;;;24.02;22.23;;;;;;;-141.02;50.93;69366.97;5136611;27;20698;-63
2023/07/10 13:21:48;;;;;;;24.52;22.73;;;;;;;-141.02;50.46;69862.34;5136950;27;20227;-65
2023/07/10 13:24:15;;;;;;;24.08;22.33;;;;;;;-141.02;50.38;71348.81;5136771;27;20275;-59
2023/07/10 13:26:46;;;;;;;24.30;22.50;;;;;;;-141.02;50.68;71101.03;5136562;27;20197;-59
2023/07/10 13:29:15;;;;;;;23.92;22.13;;;;;;;-141.02;48.99;69119.34;5136546;27;20180;-62
2023/07/10 13:31:42;;;;;;;23.98;22.17;;;;;;;-141.02;50.35;70853.25;5136442;27;20288;-59
2023/07/10 13:34:11;;;;;;;23.23;21.52;;;;;;;-141.02;50.75;70357.75;5136817;27;20291;-59
2023/07/10 13:36:38;;;;;;;24.13;22.33;;;;;;;-141.02;49.72;68624.09;5136677;27;20280;-58
2023/07/10 13:39:13;;;;;;;23.80;22.05;;;;;;;-141.02;53.72;71596.63;5136309;27;20195;-61
2023/07/10 13:41:40;;;;;;;23.63;21.92;;;;;;;-141.02;51.98;71101.03;5136454;27;20666;-65
2023/07/10 13:44:07;;;;;;;24.00;22.30;;;;;;;-141.02;51.50;70605.50;5137210;27;20197;-65
2023/07/10 13:46:36;;;;;;;23.58;21.88;;;;;;;-141.02;51.06;69862.34;5136356;27;20224;-58
2023/07/10 13:49:05;;;;;;;23.90;22.20;;;;;;;-141.02;49.42;69862.34;5136036;27;20188;-57
2023/07/10 13:51:35;;;;;;;24.10;22.30;;;;;;;-141.02;50.09;69119.34;5135983;27;20733;-59